sensor_id;sensor_type;location;lat;lon;timestamp;temperature;humidity
16136;DHT22;8173;48.354;9.248;2022-07-10T00:00:12;14.10;99.90
16136;DHT22;8173;48.354;9.248;2022-07-10T00:02:39;14.00;99.90
16136;DHT22;8173;48.354;9.248;2022-07-10T00:05:09;14.00;99.90
16136;DHT22;8173;48.354;9.248;2022-07-10T00:07:36;13.90;99.90
16136;DHT22;8173;48.354;9.248;2022-07-10T00:10:03;13.80;99.90
16136;DHT22;8173;48.354;9.248;2022-07-10T00:12:30;13.80;99.90
16136;DHT22;8173;48.354;9.248;2022-07-10T00:14:57;13.70;99.90
16136;DHT22;8173;48.354;9.248;2022-07-10T00:17:25;13.70;99.90
16136;DHT22;8173;48.354;9.248;2022-07-10T00:19:52;13.70;99.90
16136;DHT22;8173;48.354;9.248;2022-07-10T00:22:21;13.60;99.90
16136;DHT22;8173;48.354;9.248;2022-07-10T00:24:47;13.50;99.90
16136;DHT22;8173;48.354;9.248;2022-07-10T00:27:16;13.50;99.90
16136;DHT22;8173;48.354;9.248;2022-07-10T00:29:42;13.60;99.90
16136;DHT22;8173;48.354;9.248;2022-07-10T00:32:09;13.50;99.90
16136;DHT22;8173;48.354;9.248;2022-07-10T00:34:36;13.50;99.90
16136;DHT22;8173;48.354;9.248;2022-07-10T00:37:03;13.50;99.90
16136;DHT22;8173;48.354;9.248;2022-07-10T00:42:06;13.40;99.90
16136;DHT22;8173;48.354;9.248;2022-07-10T00:44:34;13.40;99.90
16136;DHT22;8173;48.354;9.248;2022-07-10T00:47:01;13.30;99.90
16136;DHT22;8173;48.354;9.248;2022-07-10T00:49:27;13.20;99.90
16136;DHT22;8173;48.354;9.248;2022-07-10T00:51:55;13.20;99.90
16136;DHT22;8173;48.354;9.248;2022-07-10T00:54:22;13.00;99.90
16136;DHT22;8173;48.354;9.248;2022-07-10T00:56:50;13.00;99.90
16136;DHT22;8173;48.354;9.248;2022-07-10T00:59:17;13.00;99.90
16136;DHT22;8173;48.354;9.248;2022-07-10T01:01:44;12.90;99.90
16136;DHT22;8173;48.354;9.248;2022-07-10T01:04:11;12.80;99.90
16136;DHT22;8173;48.354;9.248;2022-07-10T01:06:38;12.90;99.90
16136;DHT22;8173;48.354;9.248;2022-07-10T01:09:05;12.90;99.90
16136;DHT22;8173;48.354;9.248;2022-07-10T01:11:33;12.90;99.90
16136;DHT22;8173;48.354;9.248;2022-07-10T01:14:02;13.00;99.90
16136;DHT22;8173;48.354;9.248;2022-07-10T01:16:29;13.00;99.90
16136;DHT22;8173;48.354;9.248;2022-07-10T01:18:56;13.10;99.90
16136;DHT22;8173;48.354;9.248;2022-07-10T01:21:25;13.10;99.90
16136;DHT22;8173;48.354;9.248;2022-07-10T01:23:52;13.10;99.90
16136;DHT22;8173;48.354;9.248;2022-07-10T01:26:19;13.10;99.90
16136;DHT22;8173;48.354;9.248;2022-07-10T01:28:48;13.00;99.90
16136;DHT22;8173;48.354;9.248;2022-07-10T01:31:16;13.00;99.90
16136;DHT22;8173;48.354;9.248;2022-07-10T01:33:43;13.00;99.90
16136;DHT22;8173;48.354;9.248;2022-07-10T01:36:10;12.90;99.90
16136;DHT22;8173;48.354;9.248;2022-07-10T01:38:39;12.80;99.90
16136;DHT22;8173;48.354;9.248;2022-07-10T01:41:06;12.80;99.90
16136;DHT22;8173;48.354;9.248;2022-07-10T01:43:34;12.70;99.90
16136;DHT22;8173;48.354;9.248;2022-07-10T01:46:00;12.80;99.90
16136;DHT22;8173;48.354;9.248;2022-07-10T01:48:28;12.50;99.90
16136;DHT22;8173;48.354;9.248;2022-07-10T01:50:55;12.60;99.90
16136;DHT22;8173;48.354;9.248;2022-07-10T01:53:22;12.40;99.90
16136;DHT22;8173;48.354;9.248;2022-07-10T01:55:50;12.20;99.90
16136;DHT22;8173;48.354;9.248;2022-07-10T01:58:17;12.10;99.90
16136;DHT22;8173;48.354;9.248;2022-07-10T02:00:43;12.10;99.90
16136;DHT22;8173;48.354;9.248;2022-07-10T02:03:11;12.10;99.90
16136;DHT22;8173;48.354;9.248;2022-07-10T02:05:55;12.00;99.90
16136;DHT22;8173;48.354;9.248;2022-07-10T02:08:22;11.90;99.90
16136;DHT22;8173;48.354;9.248;2022-07-10T02:10:50;11.90;99.90
16136;DHT22;8173;48.354;9.248;2022-07-10T02:13:17;11.90;99.90
16136;DHT22;8173;48.354;9.248;2022-07-10T02:15:46;11.90;99.90
16136;DHT22;8173;48.354;9.248;2022-07-10T02:18:13;11.90;99.90
16136;DHT22;8173;48.354;9.248;2022-07-10T02:20:40;12.10;99.90
16136;DHT22;8173;48.354;9.248;2022-07-10T02:23:07;12.10;99.90
16136;DHT22;8173;48.354;9.248;2022-07-10T02:25:34;12.10;99.90
16136;DHT22;8173;48.354;9.248;2022-07-10T02:28:02;12.20;99.90
16136;DHT22;8173;48.354;9.248;2022-07-10T02:30:29;12.00;99.90
16136;DHT22;8173;48.354;9.248;2022-07-10T02:32:55;12.00;99.90
16136;DHT22;8173;48.354;9.248;2022-07-10T02:35:22;12.00;99.90
16136;DHT22;8173;48.354;9.248;2022-07-10T02:37:49;12.00;99.90
16136;DHT22;8173;48.354;9.248;2022-07-10T02:40:16;12.00;99.90
16136;DHT22;8173;48.354;9.248;2022-07-10T02:42:43;11.80;99.90
16136;DHT22;8173;48.354;9.248;2022-07-10T02:45:11;11.90;99.90
16136;DHT22;8173;48.354;9.248;2022-07-10T02:47:38;11.80;99.90
16136;DHT22;8173;48.354;9.248;2022-07-10T02:50:05;11.70;99.90
16136;DHT22;8173;48.354;9.248;2022-07-10T02:52:32;11.60;99.90
16136;DHT22;8173;48.354;9.248;2022-07-10T02:54:59;11.60;99.90
16136;DHT22;8173;48.354;9.248;2022-07-10T02:57:26;11.60;99.90
16136;DHT22;8173;48.354;9.248;2022-07-10T02:59:53;11.60;99.90
16136;DHT22;8173;48.354;9.248;2022-07-10T03:02:21;11.60;99.90
16136;DHT22;8173;48.354;9.248;2022-07-10T03:04:48;11.60;99.90
16136;DHT22;8173;48.354;9.248;2022-07-10T03:07:15;11.60;99.90
16136;DHT22;8173;48.354;9.248;2022-07-10T03:09:41;11.60;99.90
16136;DHT22;8173;48.354;9.248;2022-07-10T03:12:08;11.60;99.90
16136;DHT22;8173;48.354;9.248;2022-07-10T03:14:35;11.60;99.90
16136;DHT22;8173;48.354;9.248;2022-07-10T03:17:02;11.70;99.90
16136;DHT22;8173;48.354;9.248;2022-07-10T03:19:30;11.80;99.90
16136;DHT22;8173;48.354;9.248;2022-07-10T03:21:58;11.70;99.90
16136;DHT22;8173;48.354;9.248;2022-07-10T03:24:25;11.60;99.90
16136;DHT22;8173;48.354;9.248;2022-07-10T03:26:52;11.50;99.90
16136;DHT22;8173;48.354;9.248;2022-07-10T03:29:19;11.50;99.90
16136;DHT22;8173;48.354;9.248;2022-07-10T03:31:46;11.50;99.90
16136;DHT22;8173;48.354;9.248;2022-07-10T03:34:12;11.80;99.90
16136;DHT22;8173;48.354;9.248;2022-07-10T03:36:41;11.90;99.90
16136;DHT22;8173;48.354;9.248;2022-07-10T03:39:07;11.90;99.90
16136;DHT22;8173;48.354;9.248;2022-07-10T03:41:35;12.00;99.90
16136;DHT22;8173;48.354;9.248;2022-07-10T03:44:02;12.10;99.90
16136;DHT22;8173;48.354;9.248;2022-07-10T03:46:28;12.20;99.90
16136;DHT22;8173;48.354;9.248;2022-07-10T03:48:55;12.20;99.90
16136;DHT22;8173;48.354;9.248;2022-07-10T03:51:22;12.20;99.90
16136;DHT22;8173;48.354;9.248;2022-07-10T03:53:50;12.30;99.90
16136;DHT22;8173;48.354;9.248;2022-07-10T03:56:17;12.30;99.90
16136;DHT22;8173;48.354;9.248;2022-07-10T03:58:58;12.50;99.90
16136;DHT22;8173;48.354;9.248;2022-07-10T04:01:24;12.50;99.90
16136;DHT22;8173;48.354;9.248;2022-07-10T04:03:51;12.60;99.90
16136;DHT22;8173;48.354;9.248;2022-07-10T04:06:18;12.60;99.90
16136;DHT22;8173;48.354;9.248;2022-07-10T04:08:45;12.70;99.90
16136;DHT22;8173;48.354;9.248;2022-07-10T04:11:13;12.70;99.90
16136;DHT22;8173;48.354;9.248;2022-07-10T04:13:40;12.80;99.90
16136;DHT22;8173;48.354;9.248;2022-07-10T04:16:07;12.80;99.90
16136;DHT22;8173;48.354;9.248;2022-07-10T04:18:38;12.80;99.90
16136;DHT22;8173;48.354;9.248;2022-07-10T04:21:05;12.80;99.90
16136;DHT22;8173;48.354;9.248;2022-07-10T04:23:32;12.70;99.90
16136;DHT22;8173;48.354;9.248;2022-07-10T04:25:59;12.80;99.90
16136;DHT22;8173;48.354;9.248;2022-07-10T04:28:27;12.70;99.90
16136;DHT22;8173;48.354;9.248;2022-07-10T04:30:54;12.70;99.90
16136;DHT22;8173;48.354;9.248;2022-07-10T04:33:20;12.70;99.90
16136;DHT22;8173;48.354;9.248;2022-07-10T04:35:47;12.70;99.90
16136;DHT22;8173;48.354;9.248;2022-07-10T04:38:14;12.70;99.90
16136;DHT22;8173;48.354;9.248;2022-07-10T04:40:41;12.80;99.90
16136;DHT22;8173;48.354;9.248;2022-07-10T04:43:08;12.80;99.90
16136;DHT22;8173;48.354;9.248;2022-07-10T04:45:36;12.80;99.90
16136;DHT22;8173;48.354;9.248;2022-07-10T04:48:04;12.80;99.90
16136;DHT22;8173;48.354;9.248;2022-07-10T04:50:31;12.80;99.90
16136;DHT22;8173;48.354;9.248;2022-07-10T04:52:58;12.90;99.90
16136;DHT22;8173;48.354;9.248;2022-07-10T04:55:25;12.90;99.90
16136;DHT22;8173;48.354;9.248;2022-07-10T04:57:52;12.90;99.90
16136;DHT22;8173;48.354;9.248;2022-07-10T05:00:19;12.80;99.90
16136;DHT22;8173;48.354;9.248;2022-07-10T05:02:47;12.90;99.90
16136;DHT22;8173;48.354;9.248;2022-07-10T05:05:14;13.00;99.90
16136;DHT22;8173;48.354;9.248;2022-07-10T05:07:41;13.10;99.90
16136;DHT22;8173;48.354;9.248;2022-07-10T05:10:08;13.10;99.90
16136;DHT22;8173;48.354;9.248;2022-07-10T05:12:35;13.20;99.90
16136;DHT22;8173;48.354;9.248;2022-07-10T05:15:02;13.30;99.90
16136;DHT22;8173;48.354;9.248;2022-07-10T05:17:29;13.40;99.90
16136;DHT22;8173;48.354;9.248;2022-07-10T05:19:58;13.50;99.90
16136;DHT22;8173;48.354;9.248;2022-07-10T05:22:25;13.50;99.90
16136;DHT22;8173;48.354;9.248;2022-07-10T05:24:52;13.50;99.90
16136;DHT22;8173;48.354;9.248;2022-07-10T05:27:19;13.50;99.90
16136;DHT22;8173;48.354;9.248;2022-07-10T05:29:45;13.60;99.90
16136;DHT22;8173;48.354;9.248;2022-07-10T05:32:12;13.60;99.90
16136;DHT22;8173;48.354;9.248;2022-07-10T05:34:40;13.50;99.90
16136;DHT22;8173;48.354;9.248;2022-07-10T05:37:08;13.50;99.90
16136;DHT22;8173;48.354;9.248;2022-07-10T05:39:35;13.50;99.90
16136;DHT22;8173;48.354;9.248;2022-07-10T05:42:02;13.50;99.90
16136;DHT22;8173;48.354;9.248;2022-07-10T05:44:29;13.50;99.90
16136;DHT22;8173;48.354;9.248;2022-07-10T05:46:56;13.60;99.90
16136;DHT22;8173;48.354;9.248;2022-07-10T05:49:23;13.60;99.90
16136;DHT22;8173;48.354;9.248;2022-07-10T05:51:49;13.50;99.90
16136;DHT22;8173;48.354;9.248;2022-07-10T05:54:18;13.50;99.90
16136;DHT22;8173;48.354;9.248;2022-07-10T05:56:44;13.60;99.90
16136;DHT22;8173;48.354;9.248;2022-07-10T05:59:11;13.70;99.90
16136;DHT22;8173;48.354;9.248;2022-07-10T06:01:38;13.70;99.90
16136;DHT22;8173;48.354;9.248;2022-07-10T06:04:05;13.80;99.90
16136;DHT22;8173;48.354;9.248;2022-07-10T06:06:31;13.80;99.90
16136;DHT22;8173;48.354;9.248;2022-07-10T06:08:58;13.70;99.90
16136;DHT22;8173;48.354;9.248;2022-07-10T06:11:27;13.70;99.90
16136;DHT22;8173;48.354;9.248;2022-07-10T06:13:53;13.70;99.90
16136;DHT22;8173;48.354;9.248;2022-07-10T06:16:21;13.70;99.90
16136;DHT22;8173;48.354;9.248;2022-07-10T06:18:48;13.80;99.90
16136;DHT22;8173;48.354;9.248;2022-07-10T06:21:14;13.90;99.90
16136;DHT22;8173;48.354;9.248;2022-07-10T06:23:44;14.00;99.90
16136;DHT22;8173;48.354;9.248;2022-07-10T06:26:11;14.00;99.90
16136;DHT22;8173;48.354;9.248;2022-07-10T06:28:39;14.30;99.90
16136;DHT22;8173;48.354;9.248;2022-07-10T06:31:06;14.50;99.90
16136;DHT22;8173;48.354;9.248;2022-07-10T06:33:33;14.40;99.90
16136;DHT22;8173;48.354;9.248;2022-07-10T06:36:00;14.20;99.90
16136;DHT22;8173;48.354;9.248;2022-07-10T06:38:27;14.10;99.90
16136;DHT22;8173;48.354;9.248;2022-07-10T06:43:21;14.40;99.90
16136;DHT22;8173;48.354;9.248;2022-07-10T06:45:49;15.00;99.90
16136;DHT22;8173;48.354;9.248;2022-07-10T06:48:16;15.20;99.90
16136;DHT22;8173;48.354;9.248;2022-07-10T06:50:44;15.30;99.90
16136;DHT22;8173;48.354;9.248;2022-07-10T06:53:11;16.50;99.90
16136;DHT22;8173;48.354;9.248;2022-07-10T06:55:38;17.90;99.90
16136;DHT22;8173;48.354;9.248;2022-07-10T06:58:04;18.00;99.90
16136;DHT22;8173;48.354;9.248;2022-07-10T07:00:31;18.00;99.90
16136;DHT22;8173;48.354;9.248;2022-07-10T07:02:59;17.50;99.90
16136;DHT22;8173;48.354;9.248;2022-07-10T07:05:26;17.10;99.90
16136;DHT22;8173;48.354;9.248;2022-07-10T07:07:53;16.70;99.90
16136;DHT22;8173;48.354;9.248;2022-07-10T07:10:19;16.20;99.90
16136;DHT22;8173;48.354;9.248;2022-07-10T07:12:46;15.60;99.90
16136;DHT22;8173;48.354;9.248;2022-07-10T07:15:13;15.30;99.90
16136;DHT22;8173;48.354;9.248;2022-07-10T07:17:42;15.40;99.90
16136;DHT22;8173;48.354;9.248;2022-07-10T07:20:24;16.00;99.90
16136;DHT22;8173;48.354;9.248;2022-07-10T07:23:08;17.10;99.90
16136;DHT22;8173;48.354;9.248;2022-07-10T07:25:38;17.60;99.90
16136;DHT22;8173;48.354;9.248;2022-07-10T07:28:08;18.00;99.90
16136;DHT22;8173;48.354;9.248;2022-07-10T07:30:35;17.70;99.90
16136;DHT22;8173;48.354;9.248;2022-07-10T07:33:01;17.10;99.90
16136;DHT22;8173;48.354;9.248;2022-07-10T07:35:30;15.80;99.90
16136;DHT22;8173;48.354;9.248;2022-07-10T07:37:56;15.00;99.90
16136;DHT22;8173;48.354;9.248;2022-07-10T07:40:23;14.90;99.90
16136;DHT22;8173;48.354;9.248;2022-07-10T07:42:50;15.10;99.90
16136;DHT22;8173;48.354;9.248;2022-07-10T07:45:19;15.20;99.90
16136;DHT22;8173;48.354;9.248;2022-07-10T07:47:47;16.60;99.90
16136;DHT22;8173;48.354;9.248;2022-07-10T07:50:15;18.20;99.90
16136;DHT22;8173;48.354;9.248;2022-07-10T07:52:44;18.50;99.90
16136;DHT22;8173;48.354;9.248;2022-07-10T07:55:12;18.30;99.90
16136;DHT22;8173;48.354;9.248;2022-07-10T07:57:40;17.60;99.90
16136;DHT22;8173;48.354;9.248;2022-07-10T08:00:08;18.00;99.90
16136;DHT22;8173;48.354;9.248;2022-07-10T08:02:36;18.30;99.90
16136;DHT22;8173;48.354;9.248;2022-07-10T08:05:03;18.30;99.90
16136;DHT22;8173;48.354;9.248;2022-07-10T08:07:35;18.80;99.90
16136;DHT22;8173;48.354;9.248;2022-07-10T08:10:04;17.40;99.90
16136;DHT22;8173;48.354;9.248;2022-07-10T08:12:31;16.80;99.90
16136;DHT22;8173;48.354;9.248;2022-07-10T08:14:58;16.20;99.90
16136;DHT22;8173;48.354;9.248;2022-07-10T08:17:25;16.20;99.90
16136;DHT22;8173;48.354;9.248;2022-07-10T08:19:52;17.00;99.90
16136;DHT22;8173;48.354;9.248;2022-07-10T08:22:19;17.80;99.90
16136;DHT22;8173;48.354;9.248;2022-07-10T08:24:46;17.30;99.90
16136;DHT22;8173;48.354;9.248;2022-07-10T08:27:14;16.50;99.90
16136;DHT22;8173;48.354;9.248;2022-07-10T08:29:41;16.50;99.90
16136;DHT22;8173;48.354;9.248;2022-07-10T08:32:08;16.90;99.90
16136;DHT22;8173;48.354;9.248;2022-07-10T08:34:35;16.40;99.90
16136;DHT22;8173;48.354;9.248;2022-07-10T08:37:03;17.50;99.90
16136;DHT22;8173;48.354;9.248;2022-07-10T08:39:30;18.30;99.90
16136;DHT22;8173;48.354;9.248;2022-07-10T08:41:57;19.20;99.90
16136;DHT22;8173;48.354;9.248;2022-07-10T08:44:25;19.90;99.90
16136;DHT22;8173;48.354;9.248;2022-07-10T08:46:52;20.10;99.90
16136;DHT22;8173;48.354;9.248;2022-07-10T08:49:20;19.30;99.90
16136;DHT22;8173;48.354;9.248;2022-07-10T08:51:56;19.40;99.90
16136;DHT22;8173;48.354;9.248;2022-07-10T08:54:23;19.50;99.90
16136;DHT22;8173;48.354;9.248;2022-07-10T08:56:52;19.80;99.90
16136;DHT22;8173;48.354;9.248;2022-07-10T08:59:21;18.80;99.90
16136;DHT22;8173;48.354;9.248;2022-07-10T09:01:50;18.40;99.90
16136;DHT22;8173;48.354;9.248;2022-07-10T09:04:20;18.60;99.90
16136;DHT22;8173;48.354;9.248;2022-07-10T09:06:47;19.20;99.90
16136;DHT22;8173;48.354;9.248;2022-07-10T09:09:14;18.90;99.90
16136;DHT22;8173;48.354;9.248;2022-07-10T09:11:41;18.80;99.90
16136;DHT22;8173;48.354;9.248;2022-07-10T09:14:10;19.40;99.90
16136;DHT22;8173;48.354;9.248;2022-07-10T09:16:38;19.30;99.90
16136;DHT22;8173;48.354;9.248;2022-07-10T09:19:17;20.20;99.90
16136;DHT22;8173;48.354;9.248;2022-07-10T09:21:45;20.10;99.90
16136;DHT22;8173;48.354;9.248;2022-07-10T09:24:12;19.20;99.90
16136;DHT22;8173;48.354;9.248;2022-07-10T09:26:40;18.50;99.90
16136;DHT22;8173;48.354;9.248;2022-07-10T09:29:09;19.80;99.90
16136;DHT22;8173;48.354;9.248;2022-07-10T09:31:49;19.70;99.90
16136;DHT22;8173;48.354;9.248;2022-07-10T09:34:18;18.60;99.90
16136;DHT22;8173;48.354;9.248;2022-07-10T09:37:20;17.80;99.90
16136;DHT22;8173;48.354;9.248;2022-07-10T09:39:51;17.40;99.90
16136;DHT22;8173;48.354;9.248;2022-07-10T09:42:30;18.00;99.90
16136;DHT22;8173;48.354;9.248;2022-07-10T09:45:14;18.80;99.90
16136;DHT22;8173;48.354;9.248;2022-07-10T09:47:43;20.00;99.90
16136;DHT22;8173;48.354;9.248;2022-07-10T09:50:21;19.60;99.90
16136;DHT22;8173;48.354;9.248;2022-07-10T09:52:51;19.70;99.90
16136;DHT22;8173;48.354;9.248;2022-07-10T09:55:20;20.70;99.90
16136;DHT22;8173;48.354;9.248;2022-07-10T09:57:53;21.60;99.90
16136;DHT22;8173;48.354;9.248;2022-07-10T10:00:22;23.00;99.90
16136;DHT22;8173;48.354;9.248;2022-07-10T10:02:52;23.10;99.90
16136;DHT22;8173;48.354;9.248;2022-07-10T10:05:28;21.50;99.90
16136;DHT22;8173;48.354;9.248;2022-07-10T10:07:59;19.10;99.90
16136;DHT22;8173;48.354;9.248;2022-07-10T10:10:28;18.10;99.90
16136;DHT22;8173;48.354;9.248;2022-07-10T10:12:59;18.30;99.90
16136;DHT22;8173;48.354;9.248;2022-07-10T10:15:29;18.80;99.90
16136;DHT22;8173;48.354;9.248;2022-07-10T10:17:58;19.30;99.90
16136;DHT22;8173;48.354;9.248;2022-07-10T10:20:27;18.70;99.90
16136;DHT22;8173;48.354;9.248;2022-07-10T10:23:04;18.50;99.90
16136;DHT22;8173;48.354;9.248;2022-07-10T10:25:32;19.20;99.90
16136;DHT22;8173;48.354;9.248;2022-07-10T10:28:01;20.40;99.90
16136;DHT22;8173;48.354;9.248;2022-07-10T10:30:29;20.00;99.90
16136;DHT22;8173;48.354;9.248;2022-07-10T10:32:56;19.40;99.90
16136;DHT22;8173;48.354;9.248;2022-07-10T10:35:45;18.90;99.90
16136;DHT22;8173;48.354;9.248;2022-07-10T10:38:13;18.60;99.90
16136;DHT22;8173;48.354;9.248;2022-07-10T10:40:41;18.70;99.90
16136;DHT22;8173;48.354;9.248;2022-07-10T10:43:18;19.30;99.90
16136;DHT22;8173;48.354;9.248;2022-07-10T10:45:45;20.00;99.90
16136;DHT22;8173;48.354;9.248;2022-07-10T10:48:13;20.00;99.90
16136;DHT22;8173;48.354;9.248;2022-07-10T10:50:42;20.20;99.90
16136;DHT22;8173;48.354;9.248;2022-07-10T10:53:20;19.90;99.90
16136;DHT22;8173;48.354;9.248;2022-07-10T10:56:22;19.10;99.90
16136;DHT22;8173;48.354;9.248;2022-07-10T11:01:26;20.00;99.90
16136;DHT22;8173;48.354;9.248;2022-07-10T11:04:15;20.70;99.90
16136;DHT22;8173;48.354;9.248;2022-07-10T11:06:44;20.90;99.90
16136;DHT22;8173;48.354;9.248;2022-07-10T11:09:28;20.90;99.90
16136;DHT22;8173;48.354;9.248;2022-07-10T11:12:00;21.40;99.90
16136;DHT22;8173;48.354;9.248;2022-07-10T11:14:27;22.00;99.90
16136;DHT22;8173;48.354;9.248;2022-07-10T11:16:55;22.80;99.50
16136;DHT22;8173;48.354;9.248;2022-07-10T11:19:23;22.70;98.00
16136;DHT22;8173;48.354;9.248;2022-07-10T11:21:58;22.80;98.50
16136;DHT22;8173;48.354;9.248;2022-07-10T11:24:40;21.60;98.00
16136;DHT22;8173;48.354;9.248;2022-07-10T11:27:24;21.10;99.90
16136;DHT22;8173;48.354;9.248;2022-07-10T11:29:57;20.80;99.70
16136;DHT22;8173;48.354;9.248;2022-07-10T11:32:25;21.40;99.90
16136;DHT22;8173;48.354;9.248;2022-07-10T11:34:51;22.00;99.00
16136;DHT22;8173;48.354;9.248;2022-07-10T11:37:18;21.40;99.90
16136;DHT22;8173;48.354;9.248;2022-07-10T11:39:47;21.70;99.90
16136;DHT22;8173;48.354;9.248;2022-07-10T11:42:14;22.50;99.90
16136;DHT22;8173;48.354;9.248;2022-07-10T11:44:41;22.90;99.90
16136;DHT22;8173;48.354;9.248;2022-07-10T11:47:07;22.80;97.00
16136;DHT22;8173;48.354;9.248;2022-07-10T11:49:34;22.70;97.70
16136;DHT22;8173;48.354;9.248;2022-07-10T11:52:10;22.30;97.30
16136;DHT22;8173;48.354;9.248;2022-07-10T11:54:39;20.60;97.70
16136;DHT22;8173;48.354;9.248;2022-07-10T11:57:09;19.70;99.90
16136;DHT22;8173;48.354;9.248;2022-07-10T11:59:36;19.90;99.90
16136;DHT22;8173;48.354;9.248;2022-07-10T12:02:04;20.00;99.90
16136;DHT22;8173;48.354;9.248;2022-07-10T12:04:31;20.60;99.90
16136;DHT22;8173;48.354;9.248;2022-07-10T12:06:57;20.80;99.90
16136;DHT22;8173;48.354;9.248;2022-07-10T12:09:25;21.40;99.90
16136;DHT22;8173;48.354;9.248;2022-07-10T12:11:59;22.00;99.40
16136;DHT22;8173;48.354;9.248;2022-07-10T12:14:27;22.40;98.90
16136;DHT22;8173;48.354;9.248;2022-07-10T12:16:55;22.00;99.10
16136;DHT22;8173;48.354;9.248;2022-07-10T12:19:24;21.70;98.30
16136;DHT22;8173;48.354;9.248;2022-07-10T12:21:53;20.80;97.60
16136;DHT22;8173;48.354;9.248;2022-07-10T12:24:20;20.00;98.70
16136;DHT22;8173;48.354;9.248;2022-07-10T12:26:49;19.90;99.90
16136;DHT22;8173;48.354;9.248;2022-07-10T12:29:21;19.50;99.90
16136;DHT22;8173;48.354;9.248;2022-07-10T12:31:52;19.60;99.90
16136;DHT22;8173;48.354;9.248;2022-07-10T12:34:20;20.70;99.90
16136;DHT22;8173;48.354;9.248;2022-07-10T12:36:49;21.10;99.90
16136;DHT22;8173;48.354;9.248;2022-07-10T12:41:59;21.50;96.60
16136;DHT22;8173;48.354;9.248;2022-07-10T12:44:34;21.40;96.90
16136;DHT22;8173;48.354;9.248;2022-07-10T12:47:04;20.40;97.80
16136;DHT22;8173;48.354;9.248;2022-07-10T12:49:51;20.30;98.90
16136;DHT22;8173;48.354;9.248;2022-07-10T12:52:23;20.30;99.90
16136;DHT22;8173;48.354;9.248;2022-07-10T12:55:05;19.90;99.90
16136;DHT22;8173;48.354;9.248;2022-07-10T12:57:32;19.20;99.90
16136;DHT22;8173;48.354;9.248;2022-07-10T13:00:03;19.60;99.90
16136;DHT22;8173;48.354;9.248;2022-07-10T13:02:33;19.80;99.90
16136;DHT22;8173;48.354;9.248;2022-07-10T13:04:59;20.60;99.90
16136;DHT22;8173;48.354;9.248;2022-07-10T13:07:30;20.40;98.70
16136;DHT22;8173;48.354;9.248;2022-07-10T13:09:59;19.50;98.40
16136;DHT22;8173;48.354;9.248;2022-07-10T13:12:27;19.30;98.50
16136;DHT22;8173;48.354;9.248;2022-07-10T13:14:53;19.70;99.90
16136;DHT22;8173;48.354;9.248;2022-07-10T13:17:20;19.80;99.90
16136;DHT22;8173;48.354;9.248;2022-07-10T13:19:50;19.80;99.90
16136;DHT22;8173;48.354;9.248;2022-07-10T13:22:17;19.80;98.40
16136;DHT22;8173;48.354;9.248;2022-07-10T13:24:43;20.30;99.90
16136;DHT22;8173;48.354;9.248;2022-07-10T13:27:10;20.50;99.60
16136;DHT22;8173;48.354;9.248;2022-07-10T13:29:37;20.80;97.10
16136;DHT22;8173;48.354;9.248;2022-07-10T13:32:05;20.70;96.90
16136;DHT22;8173;48.354;9.248;2022-07-10T13:34:32;20.30;96.70
16136;DHT22;8173;48.354;9.248;2022-07-10T13:37:00;20.80;98.20
16136;DHT22;8173;48.354;9.248;2022-07-10T13:39:27;20.70;95.60
16136;DHT22;8173;48.354;9.248;2022-07-10T13:41:54;20.60;95.80
16136;DHT22;8173;48.354;9.248;2022-07-10T13:44:21;20.30;96.70
16136;DHT22;8173;48.354;9.248;2022-07-10T13:46:48;20.30;99.20
16136;DHT22;8173;48.354;9.248;2022-07-10T13:49:14;20.20;97.70
16136;DHT22;8173;48.354;9.248;2022-07-10T13:51:41;19.90;98.00
16136;DHT22;8173;48.354;9.248;2022-07-10T13:54:09;19.70;97.00
16136;DHT22;8173;48.354;9.248;2022-07-10T13:56:36;20.10;98.30
16136;DHT22;8173;48.354;9.248;2022-07-10T13:59:03;20.30;97.90
16136;DHT22;8173;48.354;9.248;2022-07-10T14:01:30;20.00;98.70
16136;DHT22;8173;48.354;9.248;2022-07-10T14:03:56;19.80;97.30
16136;DHT22;8173;48.354;9.248;2022-07-10T14:06:23;19.40;98.50
16136;DHT22;8173;48.354;9.248;2022-07-10T14:08:50;19.30;99.00
16136;DHT22;8173;48.354;9.248;2022-07-10T14:11:18;19.40;98.30
16136;DHT22;8173;48.354;9.248;2022-07-10T14:13:45;19.70;99.20
16136;DHT22;8173;48.354;9.248;2022-07-10T14:16:12;20.20;96.90
16136;DHT22;8173;48.354;9.248;2022-07-10T14:18:39;20.30;95.60
16136;DHT22;8173;48.354;9.248;2022-07-10T14:21:07;20.00;96.50
16136;DHT22;8173;48.354;9.248;2022-07-10T14:23:36;20.00;97.80
16136;DHT22;8173;48.354;9.248;2022-07-10T14:26:04;20.20;98.10
16136;DHT22;8173;48.354;9.248;2022-07-10T14:28:33;20.10;98.70
16136;DHT22;8173;48.354;9.248;2022-07-10T14:31:00;20.30;98.00
16136;DHT22;8173;48.354;9.248;2022-07-10T14:33:29;20.80;95.90
16136;DHT22;8173;48.354;9.248;2022-07-10T14:35:56;20.90;96.90
16136;DHT22;8173;48.354;9.248;2022-07-10T14:38:23;20.60;95.40
16136;DHT22;8173;48.354;9.248;2022-07-10T14:40:49;20.50;94.60
16136;DHT22;8173;48.354;9.248;2022-07-10T14:43:18;20.40;95.70
16136;DHT22;8173;48.354;9.248;2022-07-10T14:45:46;20.60;96.40
16136;DHT22;8173;48.354;9.248;2022-07-10T14:48:13;20.30;94.00
16136;DHT22;8173;48.354;9.248;2022-07-10T14:50:40;19.60;94.10
16136;DHT22;8173;48.354;9.248;2022-07-10T14:53:07;19.40;95.70
16136;DHT22;8173;48.354;9.248;2022-07-10T14:55:34;19.90;97.20
16136;DHT22;8173;48.354;9.248;2022-07-10T14:58:01;20.40;96.90
16136;DHT22;8173;48.354;9.248;2022-07-10T15:00:28;20.00;95.20
16136;DHT22;8173;48.354;9.248;2022-07-10T15:02:56;19.80;95.90
16136;DHT22;8173;48.354;9.248;2022-07-10T15:05:23;19.40;94.70
16136;DHT22;8173;48.354;9.248;2022-07-10T15:07:50;19.10;95.10
16136;DHT22;8173;48.354;9.248;2022-07-10T15:10:16;19.00;96.40
16136;DHT22;8173;48.354;9.248;2022-07-10T15:12:44;19.30;96.80
16136;DHT22;8173;48.354;9.248;2022-07-10T15:15:11;19.30;95.50
16136;DHT22;8173;48.354;9.248;2022-07-10T15:17:38;19.10;96.00
16136;DHT22;8173;48.354;9.248;2022-07-10T15:20:07;19.10;95.50
16136;DHT22;8173;48.354;9.248;2022-07-10T15:22:35;19.10;95.30
16136;DHT22;8173;48.354;9.248;2022-07-10T15:25:02;19.20;96.00
16136;DHT22;8173;48.354;9.248;2022-07-10T15:27:28;19.30;95.50
16136;DHT22;8173;48.354;9.248;2022-07-10T15:29:55;19.30;96.70
16136;DHT22;8173;48.354;9.248;2022-07-10T15:32:22;19.60;96.30
16136;DHT22;8173;48.354;9.248;2022-07-10T15:34:49;19.60;95.10
16136;DHT22;8173;48.354;9.248;2022-07-10T15:37:17;19.30;94.30
16136;DHT22;8173;48.354;9.248;2022-07-10T15:39:44;19.00;94.90
16136;DHT22;8173;48.354;9.248;2022-07-10T15:42:11;18.80;94.90
16136;DHT22;8173;48.354;9.248;2022-07-10T15:44:38;18.80;95.50
16136;DHT22;8173;48.354;9.248;2022-07-10T15:47:06;18.90;96.40
16136;DHT22;8173;48.354;9.248;2022-07-10T15:49:33;19.10;95.30
16136;DHT22;8173;48.354;9.248;2022-07-10T15:52:00;19.10;95.60
16136;DHT22;8173;48.354;9.248;2022-07-10T15:54:28;18.70;94.80
16136;DHT22;8173;48.354;9.248;2022-07-10T15:56:55;18.50;94.80
16136;DHT22;8173;48.354;9.248;2022-07-10T15:59:22;18.00;95.00
16136;DHT22;8173;48.354;9.248;2022-07-10T16:01:50;17.90;95.30